sensor_id;sensor_type;location;lat;lon;timestamp;pressure;altitude;pressure_sealevel;temperature;humidity
80837;BME280;70251;60.008;30.404;2024-02-23T00:01:47;100278.66;;;4.57;68.11
80837;BME280;70251;60.008;30.404;2024-02-23T00:04:13;100275.28;;;4.55;68.42
80837;BME280;70251;60.008;30.404;2024-02-23T00:06:38;100272.94;;;4.63;68.46
80837;BME280;70251;60.008;30.404;2024-02-23T00:09:04;100276.31;;;4.65;68.01
80837;BME280;70251;60.008;30.404;2024-02-23T00:11:30;100270.09;;;4.66;68.26
80837;BME280;70251;60.008;30.404;2024-02-23T00:13:58;100266.28;;;4.70;67.99
80837;BME280;70251;60.008;30.404;2024-02-23T00:16:25;100264.38;;;4.72;67.72
80837;BME280;70251;60.008;30.404;2024-02-23T00:18:51;100263.31;;;4.75;67.60
80837;BME280;70251;60.008;30.404;2024-02-23T00:21:17;100262.22;;;4.77;68.08
80837;BME280;70251;60.008;30.404;2024-02-23T00:23:43;100251.66;;;4.77;67.66
80837;BME280;70251;60.008;30.404;2024-02-23T00:26:09;100252.75;;;4.75;68.00
80837;BME280;70251;60.008;30.404;2024-02-23T00:28:34;100257.16;;;4.74;67.72
80837;BME280;70251;60.008;30.404;2024-02-23T00:31:00;100266.47;;;4.67;68.25
80837;BME280;70251;60.008;30.404;2024-02-23T00:33:26;100253.50;;;4.64;68.63
80837;BME280;70251;60.008;30.404;2024-02-23T00:35:51;100250.22;;;4.60;68.63
80837;BME280;70251;60.008;30.404;2024-02-23T00:38:17;100249.16;;;4.63;68.10
80837;BME280;70251;60.008;30.404;2024-02-23T00:40:43;100250.84;;;4.64;68.25
80837;BME280;70251;60.008;30.404;2024-02-23T00:43:09;100255.91;;;4.67;68.53
80837;BME280;70251;60.008;30.404;2024-02-23T00:45:35;100257.63;;;4.68;68.07
80837;BME280;70251;60.008;30.404;2024-02-23T00:48:00;100249.56;;;4.69;68.35
80837;BME280;70251;60.008;30.404;2024-02-23T00:50:26;100248.72;;;4.69;68.36
80837;BME280;70251;60.008;30.404;2024-02-23T00:52:53;100245.13;;;4.70;68.62
80837;BME280;70251;60.008;30.404;2024-02-23T00:55:19;100241.75;;;4.68;68.31
80837;BME280;70251;60.008;30.404;2024-02-23T00:57:44;100249.78;;;4.66;68.38
80837;BME280;70251;60.008;30.404;2024-02-23T01:00:11;100250.00;;;4.63;68.37
80837;BME280;70251;60.008;30.404;2024-02-23T01:02:38;100244.50;;;4.66;68.21
80837;BME280;70251;60.008;30.404;2024-02-23T01:05:05;100241.84;;;4.66;67.95
80837;BME280;70251;60.008;30.404;2024-02-23T01:07:31;100249.69;;;4.68;68.80
80837;BME280;70251;60.008;30.404;2024-02-23T01:10:12;100244.28;;;4.69;68.71
80837;BME280;70251;60.008;30.404;2024-02-23T01:12:37;100251.78;;;4.63;68.75
80837;BME280;70251;60.008;30.404;2024-02-23T01:15:03;100248.53;;;4.59;68.71
80837;BME280;70251;60.008;30.404;2024-02-23T01:17:30;100239.16;;;4.55;68.43
80837;BME280;70251;60.008;30.404;2024-02-23T01:20:01;100246.09;;;4.56;69.30
80837;BME280;70251;60.008;30.404;2024-02-23T01:22:27;100241.06;;;4.53;69.31
80837;BME280;70251;60.008;30.404;2024-02-23T01:24:53;100250.66;;;4.54;68.57
80837;BME280;70251;60.008;30.404;2024-02-23T01:27:18;100252.13;;;4.58;69.16
80837;BME280;70251;60.008;30.404;2024-02-23T01:29:51;100259.09;;;4.59;68.95
80837;BME280;70251;60.008;30.404;2024-02-23T01:32:17;100255.81;;;4.56;69.03
80837;BME280;70251;60.008;30.404;2024-02-23T01:34:43;100247.88;;;4.56;68.54
80837;BME280;70251;60.008;30.404;2024-02-23T01:37:08;100241.66;;;4.57;69.38
80837;BME280;70251;60.008;30.404;2024-02-23T01:39:34;100239.03;;;4.57;68.71
80837;BME280;70251;60.008;30.404;2024-02-23T01:42:00;100247.16;;;4.54;69.77
80837;BME280;70251;60.008;30.404;2024-02-23T01:44:25;100240.19;;;4.53;68.77
80837;BME280;70251;60.008;30.404;2024-02-23T01:46:51;100239.88;;;4.57;69.81
80837;BME280;70251;60.008;30.404;2024-02-23T01:49:17;100239.16;;;4.55;69.23
80837;BME280;70251;60.008;30.404;2024-02-23T01:51:43;100247.06;;;4.55;69.86
80837;BME280;70251;60.008;30.404;2024-02-23T01:54:09;100247.88;;;4.56;69.26
80837;BME280;70251;60.008;30.404;2024-02-23T01:56:36;100247.69;;;4.59;69.63
80837;BME280;70251;60.008;30.404;2024-02-23T01:59:02;100258.06;;;4.62;69.41
80837;BME280;70251;60.008;30.404;2024-02-23T02:01:31;100242.94;;;4.64;68.93
80837;BME280;70251;60.008;30.404;2024-02-23T02:03:58;100250.22;;;4.60;69.90
80837;BME280;70251;60.008;30.404;2024-02-23T02:06:24;100244.06;;;4.60;69.55
80837;BME280;70251;60.008;30.404;2024-02-23T02:08:50;100225.72;;;4.58;69.21
80837;BME280;70251;60.008;30.404;2024-02-23T02:11:17;100239.16;;;4.55;69.77
80837;BME280;70251;60.008;30.404;2024-02-23T02:13:43;100220.66;;;4.55;70.11
80837;BME280;70251;60.008;30.404;2024-02-23T02:16:08;100221.28;;;4.59;69.81
80837;BME280;70251;60.008;30.404;2024-02-23T02:18:35;100225.25;;;4.64;69.44
80837;BME280;70251;60.008;30.404;2024-02-23T02:21:00;100225.25;;;4.64;69.16
80837;BME280;70251;60.008;30.404;2024-02-23T02:23:26;100219.16;;;4.64;69.86
80837;BME280;70251;60.008;30.404;2024-02-23T02:25:53;100223.28;;;4.68;70.33
80837;BME280;70251;60.008;30.404;2024-02-23T02:28:19;100226.31;;;4.75;69.90
80837;BME280;70251;60.008;30.404;2024-02-23T02:30:45;100213.09;;;4.75;69.16
80837;BME280;70251;60.008;30.404;2024-02-23T02:33:11;100222.59;;;4.77;69.08
80837;BME280;70251;60.008;30.404;2024-02-23T02:35:36;100212.13;;;4.76;69.01
80837;BME280;70251;60.008;30.404;2024-02-23T02:38:02;100229.69;;;4.77;68.85
80837;BME280;70251;60.008;30.404;2024-02-23T02:40:28;100224.72;;;4.72;69.55
80837;BME280;70251;60.008;30.404;2024-02-23T02:43:12;100221.34;;;4.70;69.62
80837;BME280;70251;60.008;30.404;2024-02-23T02:45:37;100219.44;;;4.72;69.69
80837;BME280;70251;60.008;30.404;2024-02-23T02:48:03;100218.72;;;4.70;69.33
80837;BME280;70251;60.008;30.404;2024-02-23T02:50:30;100211.72;;;4.69;69.74
80837;BME280;70251;60.008;30.404;2024-02-23T02:52:56;100215.09;;;4.71;69.97
80837;BME280;70251;60.008;30.404;2024-02-23T02:55:22;100221.03;;;4.75;69.59
80837;BME280;70251;60.008;30.404;2024-02-23T02:57:48;100226.66;;;4.70;69.60
80837;BME280;70251;60.008;30.404;2024-02-23T03:00:13;100197.78;;;4.67;69.82
80837;BME280;70251;60.008;30.404;2024-02-23T03:02:39;100231.59;;;4.75;69.45
80837;BME280;70251;60.008;30.404;2024-02-23T03:05:05;100223.75;;;4.73;69.53
80837;BME280;70251;60.008;30.404;2024-02-23T03:07:31;100221.97;;;4.73;68.90
80837;BME280;70251;60.008;30.404;2024-02-23T03:09:56;100227.38;;;4.72;69.75
80837;BME280;70251;60.008;30.404;2024-02-23T03:12:22;100230.03;;;4.72;70.01
80837;BME280;70251;60.008;30.404;2024-02-23T03:14:48;100228.09;;;4.74;69.78
80837;BME280;70251;60.008;30.404;2024-02-23T03:17:13;100231.81;;;4.71;69.69
80837;BME280;70251;60.008;30.404;2024-02-23T03:19:39;100230.94;;;4.71;69.70
80837;BME280;70251;60.008;30.404;2024-02-23T03:22:05;100237.72;;;4.75;69.36
80837;BME280;70251;60.008;30.404;2024-02-23T03:24:30;100240.25;;;4.77;69.46
80837;BME280;70251;60.008;30.404;2024-02-23T03:26:56;100232.41;;;4.75;69.86
80837;BME280;70251;60.008;30.404;2024-02-23T03:29:22;100224.72;;;4.72;69.82
80837;BME280;70251;60.008;30.404;2024-02-23T03:31:55;100229.91;;;4.73;69.64
80837;BME280;70251;60.008;30.404;2024-02-23T03:34:21;100226.31;;;4.75;70.08
80837;BME280;70251;60.008;30.404;2024-02-23T03:36:47;100215.75;;;4.75;69.75
80837;BME280;70251;60.008;30.404;2024-02-23T03:39:13;100217.66;;;4.72;69.68
80837;BME280;70251;60.008;30.404;2024-02-23T03:41:39;100210.56;;;4.73;69.88
80837;BME280;70251;60.008;30.404;2024-02-23T03:44:05;100207.19;;;4.71;69.57
80837;BME280;70251;60.008;30.404;2024-02-23T03:46:30;100214.91;;;4.74;69.85
80837;BME280;70251;60.008;30.404;2024-02-23T03:48:56;100212.03;;;4.77;69.47
80837;BME280;70251;60.008;30.404;2024-02-23T03:51:23;100210.22;;;4.78;70.21
80837;BME280;70251;60.008;30.404;2024-02-23T03:53:49;100205.66;;;4.80;70.26
80837;BME280;70251;60.008;30.404;2024-02-23T03:56:15;100204.28;;;4.87;69.50
80837;BME280;70251;60.008;30.404;2024-02-23T03:58:41;100203.09;;;4.91;69.94
80837;BME280;70251;60.008;30.404;2024-02-23T04:01:07;100205.75;;;4.91;70.02
80837;BME280;70251;60.008;30.404;2024-02-23T04:03:33;100193.38;;;4.91;69.47
80837;BME280;70251;60.008;30.404;2024-02-23T04:05:58;100204.06;;;4.90;70.10
80837;BME280;70251;60.008;30.404;2024-02-23T04:08:24;100201.03;;;4.83;69.20
80837;BME280;70251;60.008;30.404;2024-02-23T04:10:50;100207.50;;;4.79;69.83
80837;BME280;70251;60.008;30.404;2024-02-23T04:13:15;100206.53;;;4.80;69.41
80837;BME280;70251;60.008;30.404;2024-02-23T04:15:43;100210.22;;;4.78;69.17
80837;BME280;70251;60.008;30.404;2024-02-23T04:18:09;100209.28;;;4.79;69.72
80837;BME280;70251;60.008;30.404;2024-02-23T04:20:35;100210.22;;;4.78;69.55
80837;BME280;70251;60.008;30.404;2024-02-23T04:23:01;100210.13;;;4.79;69.62
80837;BME280;70251;60.008;30.404;2024-02-23T04:25:26;100200.38;;;4.80;69.85
80837;BME280;70251;60.008;30.404;2024-02-23T04:27:52;100194.63;;;4.75;69.19
80837;BME280;70251;60.008;30.404;2024-02-23T04:30:18;100193.66;;;4.76;69.83
80837;BME280;70251;60.008;30.404;2024-02-23T04:32:43;100181.50;;;4.73;69.77
80837;BME280;70251;60.008;30.404;2024-02-23T04:35:09;100180.44;;;4.76;69.74
80837;BME280;70251;60.008;30.404;2024-02-23T04:37:35;100167.94;;;4.78;69.83
80837;BME280;70251;60.008;30.404;2024-02-23T04:40:01;100168.06;;;4.76;69.38
80837;BME280;70251;60.008;30.404;2024-02-23T04:42:27;100164.47;;;4.77;69.49
80837;BME280;70251;60.008;30.404;2024-02-23T04:44:53;100175.78;;;4.79;69.28
80837;BME280;70251;60.008;30.404;2024-02-23T04:47:21;100186.34;;;4.79;69.62
80837;BME280;70251;60.008;30.404;2024-02-23T04:49:49;100177.47;;;4.80;69.43
80837;BME280;70251;60.008;30.404;2024-02-23T04:52:20;100178.53;;;4.78;69.55
80837;BME280;70251;60.008;30.404;2024-02-23T04:54:46;100179.16;;;4.81;69.20
80837;BME280;70251;60.008;30.404;2024-02-23T04:57:15;100164.38;;;4.79;69.03
80837;BME280;70251;60.008;30.404;2024-02-23T04:59:40;100182.00;;;4.78;68.85
80837;BME280;70251;60.008;30.404;2024-02-23T05:02:06;100180.22;;;4.79;69.47
80837;BME280;70251;60.008;30.404;2024-02-23T05:04:31;100174.09;;;4.78;69.51
80837;BME280;70251;60.008;30.404;2024-02-23T05:06:58;100163.06;;;4.84;69.42
80837;BME280;70251;60.008;30.404;2024-02-23T05:09:25;100176.56;;;4.92;68.42
80837;BME280;70251;60.008;30.404;2024-02-23T05:11:50;100165.25;;;4.90;68.61
80837;BME280;70251;60.008;30.404;2024-02-23T05:14:16;100160.50;;;4.95;69.40
80837;BME280;70251;60.008;30.404;2024-02-23T05:16:42;100169.16;;;4.97;68.39
80837;BME280;70251;60.008;30.404;2024-02-23T05:19:07;100158.44;;;4.99;68.88
80837;BME280;70251;60.008;30.404;2024-02-23T05:21:33;100161.50;;;5.05;68.37
80837;BME280;70251;60.008;30.404;2024-02-23T05:23:59;100151.63;;;5.07;68.54
80837;BME280;70251;60.008;30.404;2024-02-23T05:26:25;100164.38;;;5.02;68.57
80837;BME280;70251;60.008;30.404;2024-02-23T05:28:53;100160.38;;;4.97;68.57
80837;BME280;70251;60.008;30.404;2024-02-23T05:31:54;100174.94;;;5.02;68.55
80837;BME280;70251;60.008;30.404;2024-02-23T05:34:20;100175.03;;;5.01;68.89
80837;BME280;70251;60.008;30.404;2024-02-23T05:36:47;100163.84;;;4.97;69.13
80837;BME280;70251;60.008;30.404;2024-02-23T05:39:14;100157.97;;;4.94;68.45
80837;BME280;70251;60.008;30.404;2024-02-23T05:41:43;100161.72;;;5.02;68.83
80837;BME280;70251;60.008;30.404;2024-02-23T05:44:09;100161.72;;;5.02;68.42
80837;BME280;70251;60.008;30.404;2024-02-23T05:46:36;100168.94;;;5.00;68.25
80837;BME280;70251;60.008;30.404;2024-02-23T05:49:03;100155.53;;;4.91;68.18
80837;BME280;70251;60.008;30.404;2024-02-23T05:51:32;100152.56;;;4.95;68.79
80837;BME280;70251;60.008;30.404;2024-02-23T05:53:59;100147.72;;;4.89;68.59
80837;BME280;70251;60.008;30.404;2024-02-23T05:56:24;100149.53;;;4.89;68.48
80837;BME280;70251;60.008;30.404;2024-02-23T05:58:53;100140.41;;;4.93;68.44
80837;BME280;70251;60.008;30.404;2024-02-23T06:01:24;100142.84;;;4.96;68.58
80837;BME280;70251;60.008;30.404;2024-02-23T06:03:50;100143.44;;;4.99;68.19
80837;BME280;70251;60.008;30.404;2024-02-23T06:06:16;100141.88;;;4.97;68.29
80837;BME280;70251;60.008;30.404;2024-02-23T06:08:41;100153.28;;;4.97;69.06
80837;BME280;70251;60.008;30.404;2024-02-23T06:11:09;100145.16;;;5.00;68.59
80837;BME280;70251;60.008;30.404;2024-02-23T06:13:35;100143.97;;;5.04;68.28
80837;BME280;70251;60.008;30.404;2024-02-23T06:16:10;100148.41;;;5.04;68.96
80837;BME280;70251;60.008;30.404;2024-02-23T06:18:42;100137.44;;;4.97;68.37
80837;BME280;70251;60.008;30.404;2024-02-23T06:21:15;100145.03;;;5.02;68.54
80837;BME280;70251;60.008;30.404;2024-02-23T06:23:41;100159.31;;;4.99;68.14
80837;BME280;70251;60.008;30.404;2024-02-23T06:26:26;100179.59;;;4.99;68.72
80837;BME280;70251;60.008;30.404;2024-02-23T06:28:51;100165.31;;;5.01;68.66
80837;BME280;70251;60.008;30.404;2024-02-23T06:31:18;100163.66;;;5.00;68.91
80837;BME280;70251;60.008;30.404;2024-02-23T06:33:59;100161.72;;;5.02;68.70
80837;BME280;70251;60.008;30.404;2024-02-23T06:36:25;100166.22;;;4.89;68.07
80837;BME280;70251;60.008;30.404;2024-02-23T06:38:51;100147.78;;;5.00;68.19
80837;BME280;70251;60.008;30.404;2024-02-23T06:41:18;100158.38;;;5.00;68.43
80837;BME280;70251;60.008;30.404;2024-02-23T06:43:43;100159.09;;;5.02;68.64
80837;BME280;70251;60.008;30.404;2024-02-23T06:46:10;100160.63;;;5.05;68.90
80837;BME280;70251;60.008;30.404;2024-02-23T06:48:36;100158.97;;;5.04;68.53
80837;BME280;70251;60.008;30.404;2024-02-23T06:51:10;100168.47;;;5.06;68.76
80837;BME280;70251;60.008;30.404;2024-02-23T06:53:36;100165.09;;;5.04;68.44
80837;BME280;70251;60.008;30.404;2024-02-23T06:56:04;100170.16;;;5.07;68.09
80837;BME280;70251;60.008;30.404;2024-02-23T06:58:29;100168.47;;;5.06;68.41
80837;BME280;70251;60.008;30.404;2024-02-23T07:00:55;100160.75;;;5.03;68.54
80837;BME280;70251;60.008;30.404;2024-02-23T07:03:21;100160.63;;;5.05;68.07
80837;BME280;70251;60.008;30.404;2024-02-23T07:05:46;100154.53;;;5.04;69.22
80837;BME280;70251;60.008;30.404;2024-02-23T07:08:13;100146.59;;;5.04;68.83
80837;BME280;70251;60.008;30.404;2024-02-23T07:10:44;100157.78;;;5.08;68.42
80837;BME280;70251;60.008;30.404;2024-02-23T07:13:12;100153.56;;;5.05;68.89
80837;BME280;70251;60.008;30.404;2024-02-23T07:15:38;100150.91;;;5.05;68.87
80837;BME280;70251;60.008;30.404;2024-02-23T07:18:04;100151.75;;;5.06;68.79
80837;BME280;70251;60.008;30.404;2024-02-23T07:20:30;100145.88;;;5.02;69.12
80837;BME280;70251;60.008;30.404;2024-02-23T07:22:56;100158.25;;;5.02;69.16
80837;BME280;70251;60.008;30.404;2024-02-23T07:25:27;100168.34;;;5.08;68.81
80837;BME280;70251;60.008;30.404;2024-02-23T07:27:53;100157.91;;;5.06;68.42
80837;BME280;70251;60.008;30.404;2024-02-23T07:30:18;100173.75;;;5.06;69.09
80837;BME280;70251;60.008;30.404;2024-02-23T07:32:45;100152.72;;;5.05;69.33
80837;BME280;70251;60.008;30.404;2024-02-23T07:35:13;100144.34;;;5.11;68.76
80837;BME280;70251;60.008;30.404;2024-02-23T07:37:39;100155.75;;;5.11;68.91
80837;BME280;70251;60.008;30.404;2024-02-23T07:40:05;100155.88;;;5.10;68.69
80837;BME280;70251;60.008;30.404;2024-02-23T07:45:16;100166.31;;;5.11;68.76
80837;BME280;70251;60.008;30.404;2024-02-23T07:47:42;100163.19;;;5.06;68.76
80837;BME280;70251;60.008;30.404;2024-02-23T07:50:07;100153.81;;;5.02;69.07
80837;BME280;70251;60.008;30.404;2024-02-23T07:52:55;100161.94;;;4.99;69.75
80837;BME280;70251;60.008;30.404;2024-02-23T07:55:28;100164.25;;;5.04;69.28
80837;BME280;70251;60.008;30.404;2024-02-23T07:57:58;100173.31;;;5.12;69.13
80837;BME280;70251;60.008;30.404;2024-02-23T08:00:44;100161.03;;;5.11;68.58
80837;BME280;70251;60.008;30.404;2024-02-23T08:03:09;100159.41;;;5.21;69.40
80837;BME280;70251;60.008;30.404;2024-02-23T08:05:36;100158.09;;;5.27;68.74
80837;BME280;70251;60.008;30.404;2024-02-23T08:08:05;100170.97;;;5.31;69.01
80837;BME280;70251;60.008;30.404;2024-02-23T08:10:32;100140.47;;;5.38;68.31
80837;BME280;70251;60.008;30.404;2024-02-23T08:12:58;100154.31;;;5.42;67.92
80837;BME280;70251;60.008;30.404;2024-02-23T08:15:24;100168.47;;;5.41;68.17
80837;BME280;70251;60.008;30.404;2024-02-23T08:17:53;100148.16;;;5.41;68.51
80837;BME280;70251;60.008;30.404;2024-02-23T08:20:20;100159.00;;;5.49;68.15
80837;BME280;70251;60.008;30.404;2024-02-23T08:22:45;100157.72;;;5.55;68.08
80837;BME280;70251;60.008;30.404;2024-02-23T08:25:11;100170.09;;;5.55;68.03
80837;BME280;70251;60.008;30.404;2024-02-23T08:27:36;100154.44;;;5.51;68.47
80837;BME280;70251;60.008;30.404;2024-02-23T08:30:02;100172.72;;;5.55;68.20
80837;BME280;70251;60.008;30.404;2024-02-23T08:32:30;100161.81;;;5.59;68.39
80837;BME280;70251;60.008;30.404;2024-02-23T08:34:58;100158.19;;;5.60;67.91
80837;BME280;70251;60.008;30.404;2024-02-23T08:37:30;100172.16;;;5.62;67.64
80837;BME280;70251;60.008;30.404;2024-02-23T08:39:56;100136.66;;;5.65;67.83
80837;BME280;70251;60.008;30.404;2024-02-23T08:42:22;100149.91;;;5.65;68.09
80837;BME280;70251;60.008;30.404;2024-02-23T08:44:48;100162.19;;;5.66;67.71
80837;BME280;70251;60.008;30.404;2024-02-23T08:47:13;100155.31;;;5.63;67.43
80837;BME280;70251;60.008;30.404;2024-02-23T08:49:39;100158.09;;;5.62;68.30
80837;BME280;70251;60.008;30.404;2024-02-23T08:52:05;100170.00;;;5.67;67.95
80837;BME280;70251;60.008;30.404;2024-02-23T08:54:30;100162.41;;;5.63;67.51
80837;BME280;70251;60.008;30.404;2024-02-23T08:56:59;100157.09;;;5.63;67.21
80837;BME280;70251;60.008;30.404;2024-02-23T08:59:25;100184.28;;;5.65;67.40
80837;BME280;70251;60.008;30.404;2024-02-23T09:01:55;100162.66;;;5.60;67.70
80837;BME280;70251;60.008;30.404;2024-02-23T09:04:23;100162.75;;;5.58;67.63
80837;BME280;70251;60.008;30.404;2024-02-23T09:06:49;100176.34;;;5.54;67.81
80837;BME280;70251;60.008;30.404;2024-02-23T09:09:22;100169.94;;;5.45;67.72
